sensor_id;sensor_type;location;lat;lon;timestamp;pressure;altitude;pressure_sealevel;temperature;humidity
77321;BME280;66382;52.252;8.780;2024-02-26T00:01:36;99208.25;;;5.31;64.78
77321;BME280;66382;52.252;8.780;2024-02-26T00:04:03;99220.19;;;5.35;64.55
77321;BME280;66382;52.252;8.780;2024-02-26T00:06:29;99213.03;;;5.35;64.69
77321;BME280;66382;52.252;8.780;2024-02-26T00:08:55;99210.53;;;5.34;64.58
77321;BME280;66382;52.252;8.780;2024-02-26T00:11:20;99223.22;;;5.32;64.58
77321;BME280;66382;52.252;8.780;2024-02-26T00:13:46;99220.91;;;5.29;64.71
77321;BME280;66382;52.252;8.780;2024-02-26T00:16:11;99226.16;;;5.22;64.78
77321;BME280;66382;52.252;8.780;2024-02-26T00:18:36;99226.06;;;5.15;64.81
77321;BME280;66382;52.252;8.780;2024-02-26T00:21:04;99227.44;;;5.11;65.02
77321;BME280;66382;52.252;8.780;2024-02-26T00:23:29;99230.63;;;5.07;65.07
77321;BME280;66382;52.252;8.780;2024-02-26T00:25:55;99222.66;;;5.07;64.64
77321;BME280;66382;52.252;8.780;2024-02-26T00:28:20;99223.03;;;5.04;65.04
77321;BME280;66382;52.252;8.780;2024-02-26T00:30:46;99218.38;;;5.06;64.94
77321;BME280;66382;52.252;8.780;2024-02-26T00:33:11;99216.75;;;5.05;64.87
77321;BME280;66382;52.252;8.780;2024-02-26T00:35:37;99217.94;;;5.02;65.17
77321;BME280;66382;52.252;8.780;2024-02-26T00:38:04;99216.47;;;5.00;65.01
77321;BME280;66382;52.252;8.780;2024-02-26T00:40:29;99213.34;;;4.96;65.10
77321;BME280;66382;52.252;8.780;2024-02-26T00:42:55;99219.19;;;4.91;64.68
77321;BME280;66382;52.252;8.780;2024-02-26T00:45:20;99222.34;;;4.95;64.87
77321;BME280;66382;52.252;8.780;2024-02-26T00:47:45;99212.69;;;4.94;64.61
77321;BME280;66382;52.252;8.780;2024-02-26T00:50:11;99214.72;;;4.92;64.71
77321;BME280;66382;52.252;8.780;2024-02-26T00:52:36;99212.69;;;4.94;64.81
77321;BME280;66382;52.252;8.780;2024-02-26T00:55:04;99214.38;;;4.95;65.36
77321;BME280;66382;52.252;8.780;2024-02-26T00:57:30;99212.06;;;4.92;65.06
77321;BME280;66382;52.252;8.780;2024-02-26T00:59:55;99217.19;;;4.93;64.84
77321;BME280;66382;52.252;8.780;2024-02-26T01:02:20;99220.66;;;4.94;65.30
77321;BME280;66382;52.252;8.780;2024-02-26T01:04:46;99215.81;;;4.98;65.25
77321;BME280;66382;52.252;8.780;2024-02-26T01:07:11;99218.47;;;4.98;64.66
77321;BME280;66382;52.252;8.780;2024-02-26T01:09:37;99223.59;;;4.99;64.60
77321;BME280;66382;52.252;8.780;2024-02-26T01:12:04;99215.28;;;5.02;65.07
77321;BME280;66382;52.252;8.780;2024-02-26T01:14:29;99214.25;;;5.03;64.76
77321;BME280;66382;52.252;8.780;2024-02-26T01:16:55;99208.56;;;5.06;65.17
77321;BME280;66382;52.252;8.780;2024-02-26T01:19:20;99203.91;;;5.08;65.03
77321;BME280;66382;52.252;8.780;2024-02-26T01:21:46;99207.38;;;5.09;64.63
77321;BME280;66382;52.252;8.780;2024-02-26T01:24:11;99211.50;;;5.11;64.92
77321;BME280;66382;52.252;8.780;2024-02-26T01:26:37;99205.19;;;5.12;65.00
77321;BME280;66382;52.252;8.780;2024-02-26T01:29:03;99208.28;;;5.16;65.16
77321;BME280;66382;52.252;8.780;2024-02-26T01:31:29;99209.09;;;5.16;65.41
77321;BME280;66382;52.252;8.780;2024-02-26T01:33:54;99212.34;;;5.12;64.73
77321;BME280;66382;52.252;8.780;2024-02-26T01:36:20;99200.88;;;5.11;65.06
77321;BME280;66382;52.252;8.780;2024-02-26T01:38:45;99207.84;;;5.12;64.98
77321;BME280;66382;52.252;8.780;2024-02-26T01:41:10;99213.50;;;5.09;64.46
77321;BME280;66382;52.252;8.780;2024-02-26T01:43:36;99210.28;;;5.14;65.36
77321;BME280;66382;52.252;8.780;2024-02-26T01:46:03;99198.47;;;5.16;65.34
77321;BME280;66382;52.252;8.780;2024-02-26T01:48:29;99189.91;;;5.14;65.13
77321;BME280;66382;52.252;8.780;2024-02-26T01:50:54;99199.22;;;5.10;64.86
77321;BME280;66382;52.252;8.780;2024-02-26T01:53:20;99196.56;;;5.10;65.12
77321;BME280;66382;52.252;8.780;2024-02-26T01:55:46;99191.25;;;5.10;64.91
77321;BME280;66382;52.252;8.780;2024-02-26T01:58:12;99195.94;;;5.08;64.75
77321;BME280;66382;52.252;8.780;2024-02-26T02:00:38;99190.34;;;5.03;65.23
77321;BME280;66382;52.252;8.780;2024-02-26T02:03:06;99188.72;;;5.02;64.68
77321;BME280;66382;52.252;8.780;2024-02-26T02:05:31;99188.06;;;5.00;64.89
77321;BME280;66382;52.252;8.780;2024-02-26T02:07:58;99184.03;;;5.04;65.05
77321;BME280;66382;52.252;8.780;2024-02-26T02:10:25;99182.91;;;5.13;64.62
77321;BME280;66382;52.252;8.780;2024-02-26T02:12:51;99175.84;;;5.21;65.14
77321;BME280;66382;52.252;8.780;2024-02-26T02:15:17;99179.41;;;5.28;64.75
77321;BME280;66382;52.252;8.780;2024-02-26T02:17:43;99168.41;;;5.31;64.37
77321;BME280;66382;52.252;8.780;2024-02-26T02:20:15;99172.78;;;5.38;64.71
77321;BME280;66382;52.252;8.780;2024-02-26T02:22:42;99173.88;;;5.44;64.56
77321;BME280;66382;52.252;8.780;2024-02-26T02:25:08;99175.34;;;5.47;64.26
77321;BME280;66382;52.252;8.780;2024-02-26T02:27:33;99181.25;;;5.49;64.23
77321;BME280;66382;52.252;8.780;2024-02-26T02:29:59;99186.41;;;5.50;64.10
77321;BME280;66382;52.252;8.780;2024-02-26T02:32:25;99183.94;;;5.49;64.06
77321;BME280;66382;52.252;8.780;2024-02-26T02:34:51;99185.75;;;5.48;64.36
77321;BME280;66382;52.252;8.780;2024-02-26T02:37:17;99188.63;;;5.47;63.97
77321;BME280;66382;52.252;8.780;2024-02-26T02:39:43;99197.41;;;5.47;64.16
77321;BME280;66382;52.252;8.780;2024-02-26T02:42:09;99204.94;;;5.44;64.28
77321;BME280;66382;52.252;8.780;2024-02-26T02:44:34;99205.50;;;5.39;64.56
77321;BME280;66382;52.252;8.780;2024-02-26T02:47:00;99204.41;;;5.33;64.67
77321;BME280;66382;52.252;8.780;2024-02-26T02:49:25;99210.91;;;5.31;64.57
77321;BME280;66382;52.252;8.780;2024-02-26T02:51:51;99219.53;;;5.33;64.34
77321;BME280;66382;52.252;8.780;2024-02-26T02:54:16;99228.16;;;5.35;64.83
77321;BME280;66382;52.252;8.780;2024-02-26T02:56:43;99219.78;;;5.38;64.51
77321;BME280;66382;52.252;8.780;2024-02-26T02:59:08;99227.38;;;5.41;64.26
77321;BME280;66382;52.252;8.780;2024-02-26T03:01:34;99225.38;;;5.43;64.45
77321;BME280;66382;52.252;8.780;2024-02-26T03:03:59;99229.69;;;5.44;64.86
77321;BME280;66382;52.252;8.780;2024-02-26T03:06:24;99233.19;;;5.45;64.53
77321;BME280;66382;52.252;8.780;2024-02-26T03:08:50;99230.69;;;5.43;64.72
77321;BME280;66382;52.252;8.780;2024-02-26T03:11:15;99225.84;;;5.47;64.46
77321;BME280;66382;52.252;8.780;2024-02-26T03:13:42;99229.97;;;5.49;64.39
77321;BME280;66382;52.252;8.780;2024-02-26T03:16:08;99233.69;;;5.55;64.51
77321;BME280;66382;52.252;8.780;2024-02-26T03:18:33;99226.38;;;5.57;64.12
77321;BME280;66382;52.252;8.780;2024-02-26T03:20:59;99221.47;;;5.60;64.54
77321;BME280;66382;52.252;8.780;2024-02-26T03:23:24;99222.94;;;5.63;63.97
77321;BME280;66382;52.252;8.780;2024-02-26T03:25:49;99222.94;;;5.63;64.64
77321;BME280;66382;52.252;8.780;2024-02-26T03:28:15;99221.09;;;5.64;64.23
77321;BME280;66382;52.252;8.780;2024-02-26T03:30:42;99222.13;;;5.63;64.64
77321;BME280;66382;52.252;8.780;2024-02-26T03:33:07;99214.31;;;5.61;64.58
77321;BME280;66382;52.252;8.780;2024-02-26T03:35:32;99212.69;;;5.60;64.72
77321;BME280;66382;52.252;8.780;2024-02-26T03:37:58;99223.16;;;5.62;64.76
77321;BME280;66382;52.252;8.780;2024-02-26T03:40:23;99230.47;;;5.59;64.41
77321;BME280;66382;52.252;8.780;2024-02-26T03:42:49;99230.00;;;5.56;64.70
77321;BME280;66382;52.252;8.780;2024-02-26T03:45:14;99229.19;;;5.55;64.90
77321;BME280;66382;52.252;8.780;2024-02-26T03:47:41;99232.88;;;5.54;64.82
77321;BME280;66382;52.252;8.780;2024-02-26T03:50:07;99232.88;;;5.54;64.45
77321;BME280;66382;52.252;8.780;2024-02-26T03:52:33;99239.00;;;5.55;64.95
77321;BME280;66382;52.252;8.780;2024-02-26T03:54:59;99238.19;;;5.54;64.75
77321;BME280;66382;52.252;8.780;2024-02-26T03:57:24;99229.56;;;5.52;64.98
77321;BME280;66382;52.252;8.780;2024-02-26T03:59:49;99229.56;;;5.52;64.79
77321;BME280;66382;52.252;8.780;2024-02-26T04:02:16;99223.44;;;5.52;64.56
77321;BME280;66382;52.252;8.780;2024-02-26T04:04:43;99240.22;;;5.52;64.48
77321;BME280;66382;52.252;8.780;2024-02-26T04:07:08;99227.47;;;5.48;64.43
77321;BME280;66382;52.252;8.780;2024-02-26T04:09:33;99230.69;;;5.43;64.69
77321;BME280;66382;52.252;8.780;2024-02-26T04:11:59;99231.88;;;5.41;64.69
77321;BME280;66382;52.252;8.780;2024-02-26T04:14:24;99230.59;;;5.36;64.62
77321;BME280;66382;52.252;8.780;2024-02-26T04:16:50;99232.00;;;5.32;64.71
77321;BME280;66382;52.252;8.780;2024-02-26T04:19:15;99223.56;;;5.29;64.69
77321;BME280;66382;52.252;8.780;2024-02-26T04:21:42;99223.75;;;5.27;64.52
77321;BME280;66382;52.252;8.780;2024-02-26T04:24:08;99233.56;;;5.27;64.70
77321;BME280;66382;52.252;8.780;2024-02-26T04:26:33;99236.03;;;5.28;64.60
77321;BME280;66382;52.252;8.780;2024-02-26T04:28:58;99231.38;;;5.30;64.71
77321;BME280;66382;52.252;8.780;2024-02-26T04:31:24;99236.69;;;5.30;64.77
77321;BME280;66382;52.252;8.780;2024-02-26T04:33:49;99235.66;;;5.31;64.81
77321;BME280;66382;52.252;8.780;2024-02-26T04:36:15;99231.78;;;5.34;64.80
77321;BME280;66382;52.252;8.780;2024-02-26T04:38:42;99237.13;;;5.34;64.69
77321;BME280;66382;52.252;8.780;2024-02-26T04:41:07;99236.94;;;5.35;64.79
77321;BME280;66382;52.252;8.780;2024-02-26T04:43:32;99235.31;;;5.34;64.57
77321;BME280;66382;52.252;8.780;2024-02-26T04:45:58;99237.50;;;5.31;64.75
77321;BME280;66382;52.252;8.780;2024-02-26T04:48:23;99244.00;;;5.28;64.72
77321;BME280;66382;52.252;8.780;2024-02-26T04:50:49;99248.06;;;5.24;64.65
77321;BME280;66382;52.252;8.780;2024-02-26T04:53:14;99252.47;;;5.17;64.56
77321;BME280;66382;52.252;8.780;2024-02-26T04:55:41;99253.72;;;5.06;64.79
77321;BME280;66382;52.252;8.780;2024-02-26T04:58:06;99243.75;;;4.93;65.60
77321;BME280;66382;52.252;8.780;2024-02-26T05:00:32;99264.63;;;4.96;65.46
77321;BME280;66382;52.252;8.780;2024-02-26T05:02:57;99259.13;;;4.98;65.16
77321;BME280;66382;52.252;8.780;2024-02-26T05:05:22;99256.09;;;5.01;65.46
77321;BME280;66382;52.252;8.780;2024-02-26T05:07:48;99247.75;;;5.04;65.28
77321;BME280;66382;52.252;8.780;2024-02-26T05:10:13;99255.41;;;5.07;65.51
77321;BME280;66382;52.252;8.780;2024-02-26T05:12:40;99259.31;;;5.11;65.03
77321;BME280;66382;52.252;8.780;2024-02-26T05:15:06;99261.97;;;5.11;65.29
77321;BME280;66382;52.252;8.780;2024-02-26T05:17:32;99260.16;;;5.12;65.10
77321;BME280;66382;52.252;8.780;2024-02-26T05:19:57;99251.72;;;5.08;64.84
77321;BME280;66382;52.252;8.780;2024-02-26T05:22:22;99263.34;;;5.07;65.19
77321;BME280;66382;52.252;8.780;2024-02-26T05:24:48;99267.00;;;5.06;65.30
77321;BME280;66382;52.252;8.780;2024-02-26T05:27:13;99258.59;;;5.03;65.11
77321;BME280;66382;52.252;8.780;2024-02-26T05:29:40;99270.41;;;5.00;65.19
77321;BME280;66382;52.252;8.780;2024-02-26T05:32:06;99275.06;;;4.98;65.34
77321;BME280;66382;52.252;8.780;2024-02-26T05:34:31;99275.44;;;4.95;65.65
77321;BME280;66382;52.252;8.780;2024-02-26T05:36:56;99277.63;;;4.91;65.40
77321;BME280;66382;52.252;8.780;2024-02-26T05:39:22;99275.16;;;4.90;65.70
77321;BME280;66382;52.252;8.780;2024-02-26T05:41:47;99281.94;;;4.92;65.25
77321;BME280;66382;52.252;8.780;2024-02-26T05:44:13;99284.41;;;4.94;65.49
77321;BME280;66382;52.252;8.780;2024-02-26T05:46:39;99288.06;;;4.93;65.74
77321;BME280;66382;52.252;8.780;2024-02-26T05:49:05;99293.38;;;4.93;65.70
77321;BME280;66382;52.252;8.780;2024-02-26T05:51:30;99301.00;;;4.96;66.21
77321;BME280;66382;52.252;8.780;2024-02-26T05:53:56;99300.44;;;5.01;65.83
77321;BME280;66382;52.252;8.780;2024-02-26T05:56:21;99304.56;;;5.03;65.35
77321;BME280;66382;52.252;8.780;2024-02-26T05:58:46;99313.63;;;5.09;65.60
77321;BME280;66382;52.252;8.780;2024-02-26T06:01:12;99313.47;;;5.10;65.57
77321;BME280;66382;52.252;8.780;2024-02-26T06:03:39;99322.25;;;5.11;65.71
77321;BME280;66382;52.252;8.780;2024-02-26T06:06:04;99321.88;;;5.14;65.58
77321;BME280;66382;52.252;8.780;2024-02-26T06:08:29;99323.00;;;5.20;65.71
77321;BME280;66382;52.252;8.780;2024-02-26T06:10:55;99335.09;;;5.22;65.38
77321;BME280;66382;52.252;8.780;2024-02-26T06:13:20;99335.53;;;5.26;65.46
77321;BME280;66382;52.252;8.780;2024-02-26T06:15:46;99335.16;;;5.29;65.18
77321;BME280;66382;52.252;8.780;2024-02-26T06:18:11;99329.50;;;5.32;65.14
77321;BME280;66382;52.252;8.780;2024-02-26T06:20:38;99331.91;;;5.27;65.32
77321;BME280;66382;52.252;8.780;2024-02-26T06:23:04;99333.16;;;5.31;64.96
77321;BME280;66382;52.252;8.780;2024-02-26T06:25:29;99343.78;;;5.31;65.60
77321;BME280;66382;52.252;8.780;2024-02-26T06:27:54;99350.78;;;5.32;65.61
77321;BME280;66382;52.252;8.780;2024-02-26T06:30:20;99354.25;;;5.32;65.11
77321;BME280;66382;52.252;8.780;2024-02-26T06:32:45;99351.97;;;5.29;65.46
77321;BME280;66382;52.252;8.780;2024-02-26T06:35:11;99357.63;;;5.26;65.11
77321;BME280;66382;52.252;8.780;2024-02-26T06:37:37;99358.81;;;5.24;65.78
77321;BME280;66382;52.252;8.780;2024-02-26T06:40:04;99364.78;;;5.26;65.19
77321;BME280;66382;52.252;8.780;2024-02-26T06:42:29;99355.34;;;5.23;65.05
77321;BME280;66382;52.252;8.780;2024-02-26T06:44:55;99355.16;;;5.25;65.50
77321;BME280;66382;52.252;8.780;2024-02-26T06:47:20;99366.97;;;5.22;65.05
77321;BME280;66382;52.252;8.780;2024-02-26T06:49:45;99360.75;;;5.15;65.45
77321;BME280;66382;52.252;8.780;2024-02-26T06:52:11;99376.84;;;5.13;65.48
77321;BME280;66382;52.252;8.780;2024-02-26T06:54:37;99363.13;;;5.10;65.55
77321;BME280;66382;52.252;8.780;2024-02-26T06:57:03;99365.13;;;5.08;65.27
77321;BME280;66382;52.252;8.780;2024-02-26T06:59:29;99367.28;;;5.04;65.49
77321;BME280;66382;52.252;8.780;2024-02-26T07:01:54;99354.22;;;5.03;65.69
77321;BME280;66382;52.252;8.780;2024-02-26T07:04:20;99368.19;;;4.96;65.68
77321;BME280;66382;52.252;8.780;2024-02-26T07:06:45;99375.72;;;4.93;65.41
77321;BME280;66382;52.252;8.780;2024-02-26T07:09:10;99361.97;;;4.89;65.54
77321;BME280;66382;52.252;8.780;2024-02-26T07:11:37;99375.22;;;4.89;65.73
77321;BME280;66382;52.252;8.780;2024-02-26T07:14:03;99378.25;;;4.86;66.09
77321;BME280;66382;52.252;8.780;2024-02-26T07:16:28;99379.00;;;4.80;66.01
77321;BME280;66382;52.252;8.780;2024-02-26T07:18:54;99386.09;;;4.80;66.01
77321;BME280;66382;52.252;8.780;2024-02-26T07:21:19;99379.31;;;4.77;66.13
77321;BME280;66382;52.252;8.780;2024-02-26T07:23:44;99377.50;;;4.78;65.85
77321;BME280;66382;52.252;8.780;2024-02-26T07:26:10;99379.81;;;4.81;65.97
77321;BME280;66382;52.252;8.780;2024-02-26T07:28:37;99378.50;;;4.77;66.34
77321;BME280;66382;52.252;8.780;2024-02-26T07:31:02;99374.38;;;4.74;66.04
77321;BME280;66382;52.252;8.780;2024-02-26T07:33:28;99379.69;;;4.74;66.10
77321;BME280;66382;52.252;8.780;2024-02-26T07:35:53;99377.22;;;4.72;66.38
77321;BME280;66382;52.252;8.780;2024-02-26T07:38:18;99371.72;;;4.74;66.09
77321;BME280;66382;52.252;8.780;2024-02-26T07:40:44;99367.22;;;4.74;65.84
77321;BME280;66382;52.252;8.780;2024-02-26T07:43:09;99370.91;;;4.73;65.91
77321;BME280;66382;52.252;8.780;2024-02-26T07:45:36;99375.41;;;4.73;66.36
77321;BME280;66382;52.252;8.780;2024-02-26T07:48:02;99367.59;;;4.71;66.12
77321;BME280;66382;52.252;8.780;2024-02-26T07:50:27;99381.16;;;4.77;66.00
77321;BME280;66382;52.252;8.780;2024-02-26T07:52:52;99364.84;;;4.80;66.36
77321;BME280;66382;52.252;8.780;2024-02-26T07:55:18;99383.28;;;4.81;66.45
77321;BME280;66382;52.252;8.780;2024-02-26T07:57:43;99383.13;;;4.83;66.27
77321;BME280;66382;52.252;8.780;2024-02-26T08:00:10;99388.22;;;4.84;66.59
77321;BME280;66382;52.252;8.780;2024-02-26T08:02:36;99382.28;;;4.82;65.85
77321;BME280;66382;52.252;8.780;2024-02-26T08:05:02;99387.78;;;4.81;66.17
77321;BME280;66382;52.252;8.780;2024-02-26T08:07:28;99392.25;;;4.80;66.04
77321;BME280;66382;52.252;8.780;2024-02-26T08:09:53;99383.44;;;4.80;66.36
77321;BME280;66382;52.252;8.780;2024-02-26T08:12:19;99390.44;;;4.81;66.20
77321;BME280;66382;52.252;8.780;2024-02-26T08:14:44;99391.53;;;4.86;66.83
77321;BME280;66382;52.252;8.780;2024-02-26T08:17:10;99398.69;;;4.86;66.56
77321;BME280;66382;52.252;8.780;2024-02-26T08:19:36;99387.88;;;4.87;66.59
77321;BME280;66382;52.252;8.780;2024-02-26T08:22:02;99386.72;;;4.90;66.61
77321;BME280;66382;52.252;8.780;2024-02-26T08:24:27;99382.50;;;4.95;66.91
77321;BME280;66382;52.252;8.780;2024-02-26T08:26:53;99392.75;;;4.99;66.62
77321;BME280;66382;52.252;8.780;2024-02-26T08:29:18;99388.63;;;4.96;66.51
77321;BME280;66382;52.252;8.780;2024-02-26T08:31:44;99390.75;;;5.01;67.16
77321;BME280;66382;52.252;8.780;2024-02-26T08:34:09;99386.09;;;5.03;66.80
77321;BME280;66382;52.252;8.780;2024-02-26T08:36:36;99383.44;;;5.03;66.43
77321;BME280;66382;52.252;8.780;2024-02-26T08:39:02;99389.41;;;5.05;66.64
77321;BME280;66382;52.252;8.780;2024-02-26T08:41:27;99390.75;;;5.01;66.72
77321;BME280;66382;52.252;8.780;2024-02-26T08:43:52;99393.56;;;4.99;66.42
77321;BME280;66382;52.252;8.780;2024-02-26T08:46:18;99394.75;;;4.96;66.61
77321;BME280;66382;52.252;8.780;2024-02-26T08:48:43;99400.94;;;4.97;66.85
77321;BME280;66382;52.252;8.780;2024-02-26T08:51:09;99407.88;;;4.98;66.62
77321;BME280;66382;52.252;8.780;2024-02-26T08:53:36;99403.38;;;4.99;66.60
77321;BME280;66382;52.252;8.780;2024-02-26T08:56:02;99410.00;;;5.03;66.78
77321;BME280;66382;52.252;8.780;2024-02-26T08:58:28;99416.13;;;5.03;66.83
77321;BME280;66382;52.252;8.780;2024-02-26T09:00:53;99406.53;;;5.02;67.05
77321;BME280;66382;52.252;8.780;2024-02-26T09:03:19;99412.47;;;5.04;66.47
77321;BME280;66382;52.252;8.780;2024-02-26T09:05:44;99412.47;;;5.04;66.86
77321;BME280;66382;52.252;8.780;2024-02-26T09:08:10;99408.00;;;5.05;66.76
77321;BME280;66382;52.252;8.780;2024-02-26T09:10:37;99419.72;;;5.10;66.46
77321;BME280;66382;52.252;8.780;2024-02-26T09:13:03;99430.81;;;5.14;66.75
77321;BME280;66382;52.252;8.780;2024-02-26T09:15:28;99419.34;;;5.13;66.77
77321;BME280;66382;52.252;8.780;2024-02-26T09:17:54;99426.97;;;5.16;67.02
77321;BME280;66382;52.252;8.780;2024-02-26T09:20:19;99423.31;;;5.17;67.00
77321;BME280;66382;52.252;8.780;2024-02-26T09:22:45;99423.44;;;5.24;66.82
77321;BME280;66382;52.252;8.780;2024-02-26T09:25:10;99427.84;;;5.32;66.83
77321;BME280;66382;52.252;8.780;2024-02-26T09:27:37;99437.72;;;5.38;66.76
77321;BME280;66382;52.252;8.780;2024-02-26T09:30:03;99435.72;;;5.40;66.66
77321;BME280;66382;52.252;8.780;2024-02-26T09:32:30;99436.00;;;5.45;66.86
77321;BME280;66382;52.252;8.780;2024-02-26T09:34:55;99434.38;;;5.44;66.52
77321;BME280;66382;52.252;8.780;2024-02-26T09:37:21;99440.13;;;5.48;66.52
77321;BME280;66382;52.252;8.780;2024-02-26T09:39:46;99448.38;;;5.53;66.62
77321;BME280;66382;52.252;8.780;2024-02-26T09:42:12;99439.59;;;5.52;66.76
77321;BME280;66382;52.252;8.780;2024-02-26T09:44:40;99450.50;;;5.57;66.35
77321;BME280;66382;52.252;8.780;2024-02-26T09:47:08;99454.47;;;5.62;66.12
77321;BME280;66382;52.252;8.780;2024-02-26T09:49:35;99456.09;;;5.63;66.36
77321;BME280;66382;52.252;8.780;2024-02-26T09:52:01;99452.41;;;5.64;66.36
77321;BME280;66382;52.252;8.780;2024-02-26T09:54:29;99467.19;;;5.66;66.50
77321;BME280;66382;52.252;8.780;2024-02-26T09:56:59;99468.84;;;5.67;66.20
77321;BME280;66382;52.252;8.780;2024-02-26T09:59:26;99459.03;;;5.68;66.19
77321;BME280;66382;52.252;8.780;2024-02-26T10:01:53;99477.81;;;5.66;66.15
77321;BME280;66382;52.252;8.780;2024-02-26T10:04:20;99468.69;;;5.69;66.13
77321;BME280;66382;52.252;8.780;2024-02-26T10:06:46;99470.16;;;5.71;66.19
77321;BME280;66382;52.252;8.780;2024-02-26T10:09:12;99472.22;;;5.76;66.11
77321;BME280;66382;52.252;8.780;2024-02-26T10:11:38;99471.41;;;5.75;65.97
77321;BME280;66382;52.252;8.780;2024-02-26T10:14:04;99470.59;;;5.75;65.91
77321;BME280;66382;52.252;8.780;2024-02-26T10:16:30;99469.56;;;5.76;66.06
77321;BME280;66382;52.252;8.780;2024-02-26T10:18:57;99483.50;;;5.78;66.07
77321;BME280;66382;52.252;8.780;2024-02-26T10:21:23;99477.56;;;5.76;65.99
77321;BME280;66382;52.252;8.780;2024-02-26T10:23:48;99488.03;;;5.77;66.08
77321;BME280;66382;52.252;8.780;2024-02-26T10:26:14;99491.78;;;5.83;66.34
77321;BME280;66382;52.252;8.780;2024-02-26T10:28:41;99487.75;;;5.87;66.77
77321;BME280;66382;52.252;8.780;2024-02-26T10:31:08;99497.66;;;5.93;65.92
77321;BME280;66382;52.252;8.780;2024-02-26T10:33:34;99489.66;;;5.93;65.90
77321;BME280;66382;52.252;8.780;2024-02-26T10:36:02;99500.97;;;5.95;65.61
77321;BME280;66382;52.252;8.780;2024-02-26T10:38:27;99495.19;;;5.92;65.92
77321;BME280;66382;52.252;8.780;2024-02-26T10:40:53;99498.97;;;5.97;66.15
77321;BME280;66382;52.252;8.780;2024-02-26T10:43:18;99494.75;;;6.03;65.93
77321;BME280;66382;52.252;8.780;2024-02-26T10:45:44;99500.53;;;6.07;65.91
77321;BME280;66382;52.252;8.780;2024-02-26T10:48:10;99511.63;;;6.10;65.83
77321;BME280;66382;52.252;8.780;2024-02-26T10:50:36;99501.63;;;6.12;65.77
77321;BME280;66382;52.252;8.780;2024-02-26T10:53:04;99507.44;;;6.16;65.79
77321;BME280;66382;52.252;8.780;2024-02-26T10:55:32;99512.81;;;6.22;65.91
77321;BME280;66382;52.252;8.780;2024-02-26T10:57:59;99518.78;;;6.24;65.81
77321;BME280;66382;52.252;8.780;2024-02-26T11:00:25;99521.06;;;6.28;65.92
77321;BME280;66382;52.252;8.780;2024-02-26T11:02:51;99533.66;;;6.34;65.68
77321;BME280;66382;52.252;8.780;2024-02-26T11:05:18;99544.94;;;6.36;65.60
77321;BME280;66382;52.252;8.780;2024-02-26T11:07:44;99543.75;;;6.38;65.42
77321;BME280;66382;52.252;8.780;2024-02-26T11:10:12;99536.03;;;6.43;65.60
77321;BME280;66382;52.252;8.780;2024-02-26T11:12:39;99544.47;;;6.47;65.12
77321;BME280;66382;52.252;8.780;2024-02-26T11:15:05;99549.25;;;6.52;65.93
77321;BME280;66382;52.252;8.780;2024-02-26T11:17:31;99546.19;;;6.55;65.33
77321;BME280;66382;52.252;8.780;2024-02-26T11:19:58;99550.97;;;6.59;65.56
77321;BME280;66382;52.252;8.780;2024-02-26T11:22:24;99551.22;;;6.64;65.21
77321;BME280;66382;52.252;8.780;2024-02-26T11:24:49;99559.69;;;6.68;65.30
77321;BME280;66382;52.252;8.780;2024-02-26T11:27:18;99559.97;;;6.73;64.57
77321;BME280;66382;52.252;8.780;2024-02-26T11:29:48;99554.44;;;6.75;65.31
77321;BME280;66382;52.252;8.780;2024-02-26T11:32:15;99558.75;;;6.76;65.13
77321;BME280;66382;52.252;8.780;2024-02-26T11:34:41;99553.88;;;6.79;64.81
77321;BME280;66382;52.252;8.780;2024-02-26T11:37:11;99557.81;;;6.83;64.55
77321;BME280;66382;52.252;8.780;2024-02-26T11:39:36;99555.41;;;6.88;65.29
77321;BME280;66382;52.252;8.780;2024-02-26T11:42:05;99549.31;;;6.95;64.96
77321;BME280;66382;52.252;8.780;2024-02-26T11:44:32;99555.28;;;6.97;65.27
77321;BME280;66382;52.252;8.780;2024-02-26T11:46:57;99558.59;;;6.99;65.30
77321;BME280;66382;52.252;8.780;2024-02-26T11:49:32;99556.31;;;6.96;65.22
77321;BME280;66382;52.252;8.780;2024-02-26T11:51:58;99556.97;;;6.98;64.37
77321;BME280;66382;52.252;8.780;2024-02-26T11:54:40;99560.28;;;7.00;64.92
77321;BME280;66382;52.252;8.780;2024-02-26T11:57:26;99557.00;;;7.04;64.71
77321;BME280;66382;52.252;8.780;2024-02-26T11:59:54;99555.81;;;7.07;64.49
77321;BME280;66382;52.252;8.780;2024-02-26T12:02:38;99566.38;;;7.15;65.58
77321;BME280;66382;52.252;8.780;2024-02-26T12:05:06;99571.31;;;7.18;64.52
77321;BME280;66382;52.252;8.780;2024-02-26T12:07:34;99581.22;;;7.24;65.28
77321;BME280;66382;52.252;8.780;2024-02-26T12:10:14;99577.97;;;7.29;65.29
77321;BME280;66382;52.252;8.780;2024-02-26T12:12:40;99583.78;;;7.32;63.80
77321;BME280;66382;52.252;8.780;2024-02-26T12:15:08;99585.63;;;7.32;64.21
77321;BME280;66382;52.252;8.780;2024-02-26T12:17:34;99583.78;;;7.32;64.14
77321;BME280;66382;52.252;8.780;2024-02-26T12:20:08;99591.94;;;7.31;63.23
77321;BME280;66382;52.252;8.780;2024-02-26T12:22:34;99583.13;;;7.30;63.61
77321;BME280;66382;52.252;8.780;2024-02-26T12:24:59;99588.28;;;7.32;63.93
77321;BME280;66382;52.252;8.780;2024-02-26T12:27:25;99588.06;;;7.33;64.58
77321;BME280;66382;52.252;8.780;2024-02-26T12:29:50;99600.03;;;7.38;63.64
77321;BME280;66382;52.252;8.780;2024-02-26T12:32:17;99600.66;;;7.40;64.24
77321;BME280;66382;52.252;8.780;2024-02-26T12:34:43;99602.13;;;7.42;63.83
77321;BME280;66382;52.252;8.780;2024-02-26T12:37:09;99605.88;;;7.48;63.80
77321;BME280;66382;52.252;8.780;2024-02-26T12:39:34;99606.13;;;7.53;64.00
77321;BME280;66382;52.252;8.780;2024-02-26T12:42:00;99605.38;;;7.59;64.08
77321;BME280;66382;52.252;8.780;2024-02-26T12:44:26;99610.09;;;7.64;63.83
77321;BME280;66382;52.252;8.780;2024-02-26T12:46:59;99603.19;;;7.69;64.34
77321;BME280;66382;52.252;8.780;2024-02-26T12:49:26;99608.78;;;7.74;63.81
77321;BME280;66382;52.252;8.780;2024-02-26T12:51:52;99604.25;;;7.75;63.96
77321;BME280;66382;52.252;8.780;2024-02-26T12:54:17;99616.41;;;7.78;64.20
77321;BME280;66382;52.252;8.780;2024-02-26T12:56:43;99617.03;;;7.80;64.25
77321;BME280;66382;52.252;8.780;2024-02-26T12:59:08;99615.00;;;7.82;63.21
77321;BME280;66382;52.252;8.780;2024-02-26T13:01:34;99620.94;;;7.84;63.31
77321;BME280;66382;52.252;8.780;2024-02-26T13:04:00;99622.44;;;7.86;63.59